Latest Weather Observations for Wyndham Airport

IDD60801

Issued at 8:35 pm CST Saturday 26 July 2014 (issued every 30 minutes, with the page automatically refreshed every 10 minutes)

About weather observations | Map of weather stations | Latest weather observations for NT | Other Formats
Station Details ID: 001006 Name: WYNDHAM AERO Lat: -15.51 Lon: 128.15 Height: 3.8 m
Data from the previous 72 hours. | See also: Recent months for locations in Northern Territory
Date/Time
CST
Temp
°C
App
Temp
°C
Dew
Point
Rel
Hum
%
Delta-T
°C
Wind Press
QNH
hPa
Press
MSL
hPa
Rain
since 9 am
mm
Dir
 
Spd
km/h
Gust
km/h
Spd
kts
Gust
kts
26/08:30pm 26.3 25.2 10.0 36 9.0 SW 6 7 3 4 1016.7 1016.7 0.0
26/08:00pm 25.9 24.1 9.3 35 9.1 W 9 13 5 7 1016.2 - 0.0
26/07:30pm 27.4 24.8 9.3 32 10.0 NNE 13 19 7 10 1015.8 1015.8 0.0
26/07:00pm 28.0 25.2 5.0 23 11.8 E 9 11 5 6 1015.5 - 0.0
26/06:30pm 30.9 27.2 4.6 19 13.6 E 13 17 7 9 1015.3 1015.3 0.0
26/06:00pm 32.1 27.7 4.8 18 14.3 E 17 22 9 12 1015.1 - 0.0
26/05:30pm 32.6 27.2 4.4 17 14.7 ESE 22 30 12 16 1014.9 1014.9 0.0
26/05:00pm 32.9 28.1 5.5 18 14.6 ENE 20 28 11 15 1014.8 - 0.0
26/04:30pm 33.0 28.6 4.7 17 14.9 E 17 28 9 15 1014.8 1014.8 0.0
26/04:00pm 32.9 28.1 4.6 17 14.9 SE 19 28 10 15 1014.8 - 0.0
26/03:30pm 33.2 28.0 5.7 18 14.7 E 22 32 12 17 1015.0 1015.0 0.0
26/03:00pm 33.2 29.0 5.7 18 14.7 E 17 24 9 13 1015.0 - 0.0
26/02:30pm 32.9 27.3 5.5 18 14.6 ESE 24 35 13 19 1015.2 1015.2 0.0
26/02:00pm 33.2 26.9 5.7 18 14.7 E 28 43 15 23 1015.7 - 0.0
26/01:30pm 33.3 26.6 5.8 18 14.7 E 30 44 16 24 1016.2 1016.2 0.0
26/01:00pm 32.8 26.6 6.2 19 14.3 E 28 41 15 22 1016.7 - 0.0
26/12:30pm 32.7 26.3 5.3 18 14.5 E 28 41 15 22 1017.3 1017.3 0.0
26/12:12pm 32.3 25.5 5.0 18 14.4 E 30 48 16 26 1017.6 - 0.0
26/12:00pm 32.0 24.7 4.7 18 14.3 E 32 44 17 24 1017.8 - 0.0
26/11:30am 31.4 24.0 4.2 18 14.0 E 32 41 17 22 1018.0 1018.0 0.0
26/11:00am 30.9 24.4 4.6 19 13.7 E 28 39 15 21 1018.2 - 0.0
26/10:30am 30.5 24.3 4.3 19 13.5 ESE 26 33 14 18 1018.4 1018.4 0.0
26/10:00am 29.2 23.7 3.9 20 12.8 ESE 22 30 12 16 1018.5 - 0.0
26/09:30am 27.0 23.1 5.3 25 11.1 ESE 15 20 8 11 1018.4 1018.4 0.0
26/09:00am 24.7 21.7 6.0 30 9.6 ESE 11 15 6 8 1018.2 - 0.0
26/08:30am 22.5 20.3 5.4 33 8.5 ESE 6 9 3 5 1018.0 1018.0 0.0
26/08:00am 21.0 17.4 5.0 35 7.9 SSE 13 15 7 8 1017.4 - 0.0
26/07:30am 20.3 16.3 5.1 37 7.4 E 15 15 8 8 1017.2 1017.2 0.0
26/07:00am 18.4 15.2 6.9 47 5.8 E 13 15 7 8 1017.1 - 0.0
26/06:30am 16.6 13.4 6.7 52 4.9 E 13 15 7 8 1017.0 1017.0 0.0
26/06:00am 16.7 15.6 8.4 58 4.2 NE 4 11 2 6 1016.6 - 0.0
26/05:30am 15.5 13.2 7.5 59 4.0 NNW 9 11 5 6 1016.4 1016.4 0.0
26/05:00am 16.3 14.8 8.3 59 4.1 W 6 11 3 6 1016.1 - 0.0
26/04:30am 15.5 14.1 9.0 65 3.3 E 6 7 3 4 1016.2 1016.2 0.0
26/04:00am 15.3 14.5 8.1 62 3.6 E 2 7 1 4 1016.2 - 0.0
26/03:30am 16.7 16.1 9.1 61 3.9 NE 2 7 1 4 1016.3 1016.3 0.0
26/03:00am 18.6 17.9 11.4 63 3.9 E 6 9 3 5 1016.3 - 0.0
26/02:30am 18.2 16.7 10.6 61 4.1 E 9 20 5 11 1016.5 1016.5 0.0
26/02:00am 19.5 17.1 10.0 54 5.1 E 13 15 7 8 1016.4 - 0.0
26/01:30am 18.2 15.4 8.5 53 5.0 E 13 19 7 10 1016.5 1016.5 0.0
26/01:00am 19.3 16.9 10.0 55 5.0 ENE 13 17 7 9 1016.5 - 0.0
26/12:30am 18.5 15.8 5.7 43 6.2 E 9 20 5 11 1016.7 1016.7 0.0
26/12:00am 19.5 17.5 6.3 42 6.6 ENE 6 13 3 7 1016.5 - 0.0
 
Date/Time
CST
Temp
°C
App
Temp
°C
Dew
Point
Rel
Hum
%
Delta-T
°C
Wind Press
QNH
hPa
Press
MSL
hPa
Rain
since 9 am
mm
Dir
 
Spd
km/h
Gust
km/h
Spd
kts
Gust
kts
25/11:30pm 18.5 16.2 5.0 41 6.5 NNE 6 7 3 4 1016.6 1016.6 0.0
25/11:00pm 19.7 17.4 5.7 40 6.9 WNW 7 9 4 5 1016.6 - 0.0
25/10:30pm 20.6 17.9 5.4 37 7.5 WNW 9 11 5 6 1016.7 1016.7 0.0
25/10:00pm 22.7 21.1 4.7 31 8.9 NNW 2 7 1 4 1016.5 - 0.0
25/09:30pm 24.8 21.7 5.6 29 9.8 E 11 15 6 8 1016.4 1016.4 0.0
25/09:00pm 23.5 20.4 5.4 31 9.1 E 11 13 6 7 1016.1 - 0.0
25/08:30pm 24.1 21.0 5.5 30 9.4 E 11 13 6 7 1015.7 1015.7 0.0
25/08:00pm 24.5 21.3 5.3 29 9.7 ESE 11 13 6 7 1015.2 - 0.0
25/07:30pm 25.7 22.8 4.8 26 10.5 E 9 13 5 7 1014.7 1014.7 0.0
25/07:00pm 26.8 23.8 4.0 23 11.4 ENE 9 11 5 6 1014.3 - 0.0
25/06:30pm 30.2 26.9 4.8 20 13.2 ENE 11 15 6 8 1014.0 1014.0 0.0
25/06:00pm 31.5 27.8 4.3 18 14.1 ENE 13 17 7 9 1013.9 - 0.0
25/05:30pm 32.1 29.1 4.0 17 14.5 SE 9 15 5 8 1013.6 1013.6 0.0
25/05:00pm 32.4 29.6 5.0 18 14.4 SSE 9 15 5 8 1013.4 - 0.0
25/04:30pm 32.8 29.5 4.6 17 14.8 SE 11 20 6 11 1013.2 1013.2 0.0
25/04:00pm 32.8 29.9 4.6 17 14.8 SSE 9 15 5 8 1013.4 - 0.0
25/03:30pm 32.9 28.8 4.6 17 14.9 ENE 15 24 8 13 1013.5 1013.5 0.0
25/03:00pm 32.0 29.7 4.7 18 14.3 - 6 11 3 6 1013.7 - 0.0
25/02:30pm 31.9 28.2 4.6 18 14.3 S 13 24 7 13 1014.2 1014.2 0.0
25/02:00pm 31.7 27.6 4.5 18 14.2 SE 15 24 8 13 1014.8 - 0.0
25/01:30pm 31.3 27.6 4.2 18 14.0 SE 13 22 7 12 1015.3 1015.3 0.0
25/01:00pm 31.2 26.7 4.1 18 14.0 ESE 17 19 9 10 1015.9 - 0.0
25/12:30pm 30.6 25.6 4.4 19 13.5 SE 20 28 11 15 1016.4 1016.4 0.0
25/12:00pm 30.5 25.8 5.0 20 13.3 SE 19 28 10 15 1016.8 - 0.0
25/11:30am 29.7 24.3 4.4 20 13.0 SE 22 32 12 17 1017.1 1017.1 0.0
25/11:00am 29.4 23.7 4.8 21 12.7 ESE 24 32 13 17 1017.4 - 0.0
25/10:30am 28.5 23.7 5.4 23 12.0 SE 20 30 11 16 1017.3 1017.3 0.0
25/10:00am 27.9 23.1 5.5 24 11.6 SE 20 28 11 15 1017.4 - 0.0
25/09:30am 26.6 25.1 8.6 32 9.8 ESE 6 13 3 7 1017.1 1017.1 0.0
25/09:00am 23.5 23.7 11.9 48 6.6 WSW 2 7 1 4 1016.7 - 0.0
25/08:30am 21.5 21.9 12.4 56 5.1 SSW 2 7 1 4 1016.2 1016.2 0.0
25/08:00am 18.0 18.6 12.0 68 3.3 CALM 0 0 0 0 1015.7 - 0.0
25/07:30am 17.6 16.7 12.5 72 2.8 N 9 13 5 7 1015.2 1015.2 0.0
25/07:00am 17.5 17.7 12.0 70 3.0 NE 2 6 1 3 1015.3 - 0.0
25/06:30am 18.7 17.8 13.8 73 2.8 SE 11 24 6 13 1014.7 1014.7 0.0
25/06:00am 17.3 18.1 12.4 73 2.7 CALM 0 0 0 0 1014.2 - 0.0
25/05:30am 17.5 17.5 13.6 78 2.2 ESE 6 7 3 4 1014.4 1014.4 0.0
25/05:00am 18.2 17.9 13.3 73 2.8 E 7 9 4 5 1014.5 - 0.0
25/04:30am 19.4 19.5 14.4 73 2.9 ENE 7 9 4 5 1014.4 1014.4 0.0
25/04:00am 19.7 19.7 16.2 80 2.1 ENE 11 13 6 7 1014.4 - 0.0
25/03:30am 20.1 19.1 14.5 70 3.3 E 13 15 7 8 1014.5 1014.5 0.0
25/03:00am 21.3 20.5 14.0 63 4.2 E 11 13 6 7 1014.5 - 0.0
25/02:30am 20.5 18.7 12.2 59 4.6 ESE 13 13 7 7 1014.1 1014.1 0.0
25/02:00am 21.5 20.6 12.6 57 5.0 E 9 11 5 6 1014.1 - 0.0
25/01:30am 22.3 21.5 12.8 55 5.4 E 9 11 5 6 1014.1 1014.1 0.0
25/01:00am 22.5 21.5 12.2 52 5.8 ESE 9 11 5 6 1014.3 - 0.0
25/12:30am 22.8 22.0 11.8 50 6.2 E 7 11 4 6 1014.1 1014.1 0.0
25/12:00am 23.9 22.8 11.9 47 6.8 SE 9 11 5 6 1014.1 - 0.0
 
Date/Time
CST
Temp
°C
App
Temp
°C
Dew
Point
Rel
Hum
%
Delta-T
°C
Wind Press
QNH
hPa
Press
MSL
hPa
Rain
since 9 am
mm
Dir
 
Spd
km/h
Gust
km/h
Spd
kts
Gust
kts
24/11:30pm 24.4 22.7 12.4 47 6.9 SE 13 15 7 8 1014.0 1014.0 0.0
24/11:00pm 24.4 23.1 11.4 44 7.3 SE 9 15 5 8 1013.8 - 0.0
24/10:30pm 25.7 23.7 7.3 31 9.7 SE 7 13 4 7 1013.9 1013.9 0.0
24/10:00pm 26.4 24.9 8.4 32 9.7 SW 6 9 3 5 1013.6 - 0.0
24/09:30pm 26.7 24.2 6.7 28 10.5 SW 9 13 5 7 1013.4 1013.4 0.0
24/09:00pm 27.0 24.4 4.1 23 11.5 WNW 7 13 4 7 1013.1 - 0.0
24/08:30pm 27.5 22.8 3.2 21 12.1 N 17 24 9 13 1012.6 1012.6 0.0
24/08:00pm 27.5 22.8 3.2 21 12.1 N 17 22 9 12 1012.2 - 0.0
24/07:30pm 27.5 23.7 7.4 28 10.7 N 17 24 9 13 1011.9 1011.9 0.0
24/07:00pm 28.2 24.7 7.4 27 11.2 N 15 20 8 11 1011.4 - 0.0
24/06:30pm 29.9 27.3 5.9 22 12.7 N 9 13 5 7 1011.1 1011.1 0.0
24/06:00pm 31.3 28.2 5.7 20 13.6 N 11 15 6 8 1011.1 - 0.0
24/05:30pm 31.9 28.9 6.2 20 13.8 N 11 20 6 11 1010.9 1010.9 0.0
24/05:00pm 32.3 29.2 5.7 19 14.2 NNE 11 17 6 9 1010.8 - 0.0
24/04:30pm 32.6 30.4 6.0 19 14.3 NW 7 17 4 9 1010.9 1010.9 0.0
24/04:00pm 32.6 29.8 5.2 18 14.5 NNW 9 20 5 11 1011.0 - 0.0
24/03:30pm 32.7 29.3 6.1 19 14.3 NNW 13 24 7 13 1011.2 1011.2 0.0
24/03:00pm 32.7 28.6 6.1 19 14.3 NNW 17 26 9 14 1011.6 - 0.0
24/02:30pm 32.3 29.1 5.0 18 14.4 NW 11 17 6 9 1011.9 1011.9 0.0
24/02:00pm 31.9 29.1 6.9 21 13.6 WSW 11 19 6 10 1012.3 - 0.0
24/01:30pm 31.6 29.6 8.6 24 12.8 WNW 9 19 5 10 1012.9 1012.9 0.0
24/01:00pm 30.6 29.4 11.5 30 11.1 WSW 9 17 5 9 1013.4 - 0.0
24/12:30pm 29.5 28.4 12.0 34 10.2 SW 9 15 5 8 1014.0 1014.0 0.0
24/12:00pm 29.2 28.2 12.2 35 9.9 NW 9 13 5 7 1014.5 - 0.0
24/11:30am 28.1 26.5 11.6 36 9.5 WSW 11 17 6 9 1014.8 1014.8 0.0
24/11:00am 27.0 26.0 10.2 35 9.4 SW 6 9 3 5 1014.9 - 0.0
24/10:30am 25.6 25.1 12.1 43 7.7 WSW 6 7 3 4 1015.0 1015.0 0.0
24/10:00am 24.7 24.3 12.3 46 7.1 W 6 7 3 4 1015.2 - 0.0
24/09:30am 23.9 23.6 12.8 49 6.4 SW 6 9 3 5 1015.1 1015.1 0.0
24/09:00am 22.5 22.4 13.8 58 5.1 S 7 9 4 5 1015.1 - 0.0
24/08:30am 20.8 22.1 14.0 65 3.9 CALM 0 0 0 0 1014.5 1014.5 0.0
24/08:00am 17.8 17.5 13.3 75 2.5 NNW 7 7 4 4 1014.1 - 0.0
24/07:30am 16.7 17.3 12.0 74 2.6 CALM 0 0 0 0 1013.8 1013.8 0.0
24/07:00am 17.3 16.8 12.0 71 2.9 W 6 7 3 4 1013.3 - 0.0
24/06:30am 17.5 16.6 11.3 67 3.4 WSW 7 7 4 4 1013.1 1013.1 0.0
24/06:00am 17.6 16.6 10.2 62 3.9 W 6 7 3 4 1013.0 - 0.0
24/05:30am 16.5 15.8 10.1 66 3.4 W 4 6 2 3 1012.7 1012.7 0.0
24/05:00am 19.0 19.7 12.3 65 3.7 CALM 0 0 0 0 1012.6 - 0.0
24/04:30am 17.5 17.0 12.2 71 2.9 NW 6 7 3 4 1012.6 1012.6 0.0
24/04:00am 17.0 16.5 10.8 67 3.3 NW 4 6 2 3 1012.5 - 0.0
24/03:30am 17.1 16.3 10.9 67 3.3 NNW 6 7 3 4 1012.5 1012.5 0.0
24/03:00am 17.5 16.7 11.1 66 3.5 NW 6 6 3 3 1012.7 - 0.0
24/02:30am 17.1 16.3 11.2 68 3.2 W 6 6 3 3 1012.8 1012.8 0.0
24/02:00am 18.0 16.4 10.1 60 4.2 SW 9 11 5 6 1013.2 - 0.0
24/01:30am 17.6 17.8 10.5 63 3.8 CALM 0 0 0 0 1013.4 1013.4 0.0
24/01:00am 18.5 17.9 12.3 67 3.4 E 7 7 4 4 1013.5 - 0.0
24/12:30am 19.3 18.8 13.9 71 3.1 E 9 11 5 6 1013.6 1013.6 0.0
24/12:00am 19.7 19.6 13.9 69 3.3 ENE 7 9 4 5 1013.7 - 0.0
 
Date/Time
CST
Temp
°C
App
Temp
°C
Dew
Point
Rel
Hum
%
Delta-T
°C
Wind Press
QNH
hPa
Press
MSL
hPa
Rain
since 9 am
mm
Dir
 
Spd
km/h
Gust
km/h
Spd
kts
Gust
kts
23/11:30pm 20.2 18.7 13.2 64 4.0 E 13 15 7 8 1013.6 1013.6 0.0
23/11:00pm 21.4 21.3 10.9 51 5.8 ESE 2 7 1 4 1013.5 - 0.0
23/10:30pm 23.7 22.0 8.2 37 8.2 WSW 7 11 4 6 1013.3 1013.3 0.0

Other Formats:

Comma delimited format used in spreadsheet applications
http://www.bom.gov.au/fwo/IDD60801/IDD60801.95214.axf

JavaScript Object Notation format (JSON) in row-major order
http://www.bom.gov.au/fwo/IDD60801/IDD60801.95214.json